sensor_id;sensor_type;location;lat;lon;timestamp;pressure;altitude;pressure_sealevel;temperature;humidity
70730;BME280;58315;53.336;55.932;2022-10-31T00:01:22;98026.88;;;8.27;64.12
70730;BME280;58315;53.336;55.932;2022-10-31T00:03:49;98028.84;;;8.25;64.40
70730;BME280;58315;53.336;55.932;2022-10-31T00:06:15;98027.66;;;8.19;64.53
70730;BME280;58315;53.336;55.932;2022-10-31T00:08:51;98029.03;;;8.31;64.29
70730;BME280;58315;53.336;55.932;2022-10-31T00:11:17;98023.25;;;8.28;64.04
70730;BME280;58315;53.336;55.932;2022-10-31T00:13:43;98033.09;;;8.26;64.37
70730;BME280;58315;53.336;55.932;2022-10-31T00:16:23;98022.97;;;8.39;64.55
70730;BME280;58315;53.336;55.932;2022-10-31T00:18:51;98025.41;;;8.32;64.48
70730;BME280;58315;53.336;55.932;2022-10-31T00:21:19;98030.66;;;8.32;64.22
70730;BME280;58315;53.336;55.932;2022-10-31T00:23:45;98009.78;;;8.31;64.35
70730;BME280;58315;53.336;55.932;2022-10-31T00:26:11;98009.81;;;8.39;64.12
70730;BME280;58315;53.336;55.932;2022-10-31T00:28:37;98019.53;;;8.38;64.22
70730;BME280;58315;53.336;55.932;2022-10-31T00:31:06;98024.56;;;8.32;64.66
70730;BME280;58315;53.336;55.932;2022-10-31T00:33:34;98012.63;;;8.37;64.44
70730;BME280;58315;53.336;55.932;2022-10-31T00:36:00;98020.94;;;8.33;64.57
70730;BME280;58315;53.336;55.932;2022-10-31T00:38:26;98013.72;;;8.35;64.71
70730;BME280;58315;53.336;55.932;2022-10-31T00:40:52;98009.00;;;8.47;64.64
70730;BME280;58315;53.336;55.932;2022-10-31T00:43:18;98006.84;;;8.34;64.73
70730;BME280;58315;53.336;55.932;2022-10-31T00:45:44;98006.34;;;8.30;64.95
70730;BME280;58315;53.336;55.932;2022-10-31T00:48:10;98001.91;;;8.39;64.70
70730;BME280;58315;53.336;55.932;2022-10-31T00:50:37;98004.56;;;8.39;64.74
70730;BME280;58315;53.336;55.932;2022-10-31T00:53:03;97995.50;;;8.41;64.77
70730;BME280;58315;53.336;55.932;2022-10-31T00:55:29;97997.97;;;8.43;64.92
70730;BME280;58315;53.336;55.932;2022-10-31T00:57:56;97999.47;;;8.45;64.95
70730;BME280;58315;53.336;55.932;2022-10-31T01:00:22;97996.47;;;8.40;64.89
70730;BME280;58315;53.336;55.932;2022-10-31T01:02:48;97994.31;;;8.36;65.06
70730;BME280;58315;53.336;55.932;2022-10-31T01:05:15;97979.22;;;8.46;64.80
70730;BME280;58315;53.336;55.932;2022-10-31T01:07:41;97989.09;;;8.52;64.73
70730;BME280;58315;53.336;55.932;2022-10-31T01:10:10;97990.41;;;8.48;64.86
70730;BME280;58315;53.336;55.932;2022-10-31T01:12:37;97992.25;;;8.56;64.76
70730;BME280;58315;53.336;55.932;2022-10-31T01:15:04;97979.56;;;8.59;64.32
70730;BME280;58315;53.336;55.932;2022-10-31T01:17:30;97971.97;;;8.64;64.22
70730;BME280;58315;53.336;55.932;2022-10-31T01:19:56;97978.75;;;8.67;64.11
70730;BME280;58315;53.336;55.932;2022-10-31T01:22:22;97971.97;;;8.64;64.15
70730;BME280;58315;53.336;55.932;2022-10-31T01:24:49;97972.31;;;8.61;64.38
70730;BME280;58315;53.336;55.932;2022-10-31T01:27:33;97961.78;;;8.53;64.53
70730;BME280;58315;53.336;55.932;2022-10-31T01:29:59;97954.56;;;8.63;64.54
70730;BME280;58315;53.336;55.932;2022-10-31T01:32:26;97961.75;;;8.69;64.22
70730;BME280;58315;53.336;55.932;2022-10-31T01:34:54;97952.72;;;8.64;64.47
70730;BME280;58315;53.336;55.932;2022-10-31T01:37:21;97964.25;;;8.55;64.57
70730;BME280;58315;53.336;55.932;2022-10-31T01:39:48;97959.31;;;8.60;64.66
70730;BME280;58315;53.336;55.932;2022-10-31T01:42:20;97956.69;;;8.68;64.39
70730;BME280;58315;53.336;55.932;2022-10-31T01:44:59;97947.63;;;8.62;64.50
70730;BME280;58315;53.336;55.932;2022-10-31T01:47:45;97954.53;;;8.80;64.34
70730;BME280;58315;53.336;55.932;2022-10-31T01:50:20;97953.69;;;8.79;64.31
70730;BME280;58315;53.336;55.932;2022-10-31T01:52:49;97945.28;;;8.84;64.03
70730;BME280;58315;53.336;55.932;2022-10-31T01:55:26;97942.31;;;8.95;63.95
70730;BME280;58315;53.336;55.932;2022-10-31T01:57:58;97951.75;;;8.81;63.98
70730;BME280;58315;53.336;55.932;2022-10-31T02:00:26;97936.75;;;8.82;64.05
70730;BME280;58315;53.336;55.932;2022-10-31T02:02:52;97947.44;;;8.80;64.37
70730;BME280;58315;53.336;55.932;2022-10-31T02:05:24;97949.56;;;8.93;64.09
70730;BME280;58315;53.336;55.932;2022-10-31T02:08:15;97935.72;;;8.91;63.97
70730;BME280;58315;53.336;55.932;2022-10-31T02:10:48;97945.47;;;8.82;64.00
70730;BME280;58315;53.336;55.932;2022-10-31T02:13:15;97942.03;;;8.82;64.37
70730;BME280;58315;53.336;55.932;2022-10-31T02:15:47;97947.28;;;8.90;64.38
70730;BME280;58315;53.336;55.932;2022-10-31T02:18:15;97950.06;;;8.80;64.42
70730;BME280;58315;53.336;55.932;2022-10-31T02:32:13;97932.47;;;8.89;64.82
70730;BME280;58315;53.336;55.932;2022-10-31T02:37:24;97927.84;;;8.83;64.98
70730;BME280;58315;53.336;55.932;2022-10-31T02:43:21;97938.06;;;8.86;65.43
70730;BME280;58315;53.336;55.932;2022-10-31T02:46:14;97933.59;;;8.94;65.32
70730;BME280;58315;53.336;55.932;2022-10-31T02:49:10;97935.59;;;8.92;65.21
70730;BME280;58315;53.336;55.932;2022-10-31T02:51:39;97934.09;;;8.90;65.20
70730;BME280;58315;53.336;55.932;2022-10-31T02:54:17;97926.00;;;8.91;65.55
70730;BME280;58315;53.336;55.932;2022-10-31T02:56:43;97940.50;;;8.87;65.36
70730;BME280;58315;53.336;55.932;2022-10-31T02:59:09;97930.66;;;8.89;65.67
70730;BME280;58315;53.336;55.932;2022-10-31T03:02:15;97927.28;;;9.12;65.40
70730;BME280;58315;53.336;55.932;2022-10-31T03:04:57;97933.06;;;9.07;65.12
70730;BME280;58315;53.336;55.932;2022-10-31T03:10:31;97935.97;;;9.21;65.04
70730;BME280;58315;53.336;55.932;2022-10-31T03:13:12;97933.19;;;9.22;65.19
70730;BME280;58315;53.336;55.932;2022-10-31T03:15:49;97937.28;;;9.25;64.63
70730;BME280;58315;53.336;55.932;2022-10-31T03:18:35;97937.94;;;9.27;64.60
70730;BME280;58315;53.336;55.932;2022-10-31T03:21:19;97933.00;;;9.24;65.18
70730;BME280;58315;53.336;55.932;2022-10-31T03:23:48;97929.25;;;9.10;65.11
70730;BME280;58315;53.336;55.932;2022-10-31T03:26:21;97920.38;;;9.11;64.82
70730;BME280;58315;53.336;55.932;2022-10-31T03:31:26;97920.84;;;9.23;65.10
70730;BME280;58315;53.336;55.932;2022-10-31T03:33:58;97912.31;;;9.12;65.04
70730;BME280;58315;53.336;55.932;2022-10-31T03:36:30;97917.56;;;9.12;65.21
70730;BME280;58315;53.336;55.932;2022-10-31T03:39:01;97924.16;;;9.08;65.40
70730;BME280;58315;53.336;55.932;2022-10-31T03:41:31;97924.81;;;9.10;65.36
70730;BME280;58315;53.336;55.932;2022-10-31T03:44:07;97936.31;;;9.17;65.17
70730;BME280;58315;53.336;55.932;2022-10-31T03:46:37;97935.72;;;9.07;65.29
70730;BME280;58315;53.336;55.932;2022-10-31T03:49:04;97939.47;;;9.13;64.83
70730;BME280;58315;53.336;55.932;2022-10-31T03:51:32;97938.94;;;9.17;65.31
70730;BME280;58315;53.336;55.932;2022-10-31T03:54:14;97941.22;;;9.37;64.84
70730;BME280;58315;53.336;55.932;2022-10-31T03:56:49;97944.00;;;9.35;64.64
70730;BME280;58315;53.336;55.932;2022-10-31T03:59:24;97948.13;;;9.38;64.32
70730;BME280;58315;53.336;55.932;2022-10-31T04:01:54;97944.69;;;9.29;64.73
70730;BME280;58315;53.336;55.932;2022-10-31T04:04:23;97945.53;;;9.30;64.63
70730;BME280;58315;53.336;55.932;2022-10-31T04:07:09;97941.22;;;9.37;64.50
70730;BME280;58315;53.336;55.932;2022-10-31T04:09:38;97941.84;;;9.39;64.73
70730;BME280;58315;53.336;55.932;2022-10-31T04:12:06;97933.44;;;9.44;64.44
70730;BME280;58315;53.336;55.932;2022-10-31T04:14:54;97942.88;;;9.30;64.71
70730;BME280;58315;53.336;55.932;2022-10-31T04:17:24;97947.41;;;9.52;64.46
70730;BME280;58315;53.336;55.932;2022-10-31T04:19:59;97956.47;;;9.50;64.47
70730;BME280;58315;53.336;55.932;2022-10-31T04:22:26;97959.81;;;9.35;64.25
70730;BME280;58315;53.336;55.932;2022-10-31T04:24:52;97961.13;;;9.39;64.67
70730;BME280;58315;53.336;55.932;2022-10-31T04:27:17;97954.50;;;9.52;64.29
70730;BME280;58315;53.336;55.932;2022-10-31T04:29:43;97959.94;;;9.50;64.37
70730;BME280;58315;53.336;55.932;2022-10-31T04:32:09;97956.66;;;9.48;64.59
70730;BME280;58315;53.336;55.932;2022-10-31T04:34:37;97962.59;;;9.42;64.83
70730;BME280;58315;53.336;55.932;2022-10-31T04:37:04;97959.81;;;9.35;65.14
70730;BME280;58315;53.336;55.932;2022-10-31T04:39:31;97968.19;;;9.47;64.60
70730;BME280;58315;53.336;55.932;2022-10-31T04:42:16;97970.84;;;9.47;64.83
70730;BME280;58315;53.336;55.932;2022-10-31T04:44:43;97973.31;;;9.40;64.81
70730;BME280;58315;53.336;55.932;2022-10-31T04:47:10;97972.81;;;9.45;65.36
70730;BME280;58315;53.336;55.932;2022-10-31T04:49:36;97984.03;;;9.47;65.02
70730;BME280;58315;53.336;55.932;2022-10-31T04:52:02;97978.03;;;9.53;64.74
70730;BME280;58315;53.336;55.932;2022-10-31T04:54:28;97977.72;;;9.56;65.05
70730;BME280;58315;53.336;55.932;2022-10-31T04:57:58;97974.41;;;9.62;64.86
70730;BME280;58315;53.336;55.932;2022-10-31T05:00:26;97972.91;;;9.60;64.94
70730;BME280;58315;53.336;55.932;2022-10-31T05:03:10;97968.78;;;9.65;64.68
70730;BME280;58315;53.336;55.932;2022-10-31T05:05:36;97975.06;;;9.56;64.99
70730;BME280;58315;53.336;55.932;2022-10-31T05:08:03;97968.78;;;9.65;65.25
70730;BME280;58315;53.336;55.932;2022-10-31T05:10:30;97963.88;;;9.54;65.33
70730;BME280;58315;53.336;55.932;2022-10-31T05:13:00;97980.78;;;9.68;65.26
70730;BME280;58315;53.336;55.932;2022-10-31T05:15:46;97980.59;;;9.78;64.86
70730;BME280;58315;53.336;55.932;2022-10-31T05:18:30;97979.25;;;9.82;64.99
70730;BME280;58315;53.336;55.932;2022-10-31T05:21:16;97980.94;;;9.75;65.55
70730;BME280;58315;53.336;55.932;2022-10-31T05:23:50;97974.63;;;9.84;65.22
70730;BME280;58315;53.336;55.932;2022-10-31T05:26:17;97970.41;;;9.98;64.85
70730;BME280;58315;53.336;55.932;2022-10-31T05:28:44;97979.19;;;9.90;65.14
70730;BME280;58315;53.336;55.932;2022-10-31T05:31:10;97972.09;;;9.90;65.54
70730;BME280;58315;53.336;55.932;2022-10-31T05:33:36;97963.63;;;10.03;65.25
70730;BME280;58315;53.336;55.932;2022-10-31T05:36:03;97965.53;;;10.18;64.96
70730;BME280;58315;53.336;55.932;2022-10-31T05:38:40;97968.78;;;10.28;64.65
70730;BME280;58315;53.336;55.932;2022-10-31T05:41:12;97974.34;;;10.33;64.54
70730;BME280;58315;53.336;55.932;2022-10-31T05:43:48;97975.28;;;10.40;64.15
70730;BME280;58315;53.336;55.932;2022-10-31T05:46:17;97963.91;;;10.40;64.11
70730;BME280;58315;53.336;55.932;2022-10-31T05:49:01;97966.38;;;10.41;63.98
70730;BME280;58315;53.336;55.932;2022-10-31T05:51:46;97976.91;;;10.41;63.94
70730;BME280;58315;53.336;55.932;2022-10-31T05:54:13;97970.00;;;10.40;64.32
70730;BME280;58315;53.336;55.932;2022-10-31T05:56:39;97964.25;;;10.36;64.35
70730;BME280;58315;53.336;55.932;2022-10-31T05:59:06;97952.53;;;10.39;64.60
70730;BME280;58315;53.336;55.932;2022-10-31T06:01:32;97964.97;;;10.53;64.14
70730;BME280;58315;53.336;55.932;2022-10-31T06:04:04;97968.94;;;10.49;64.39
70730;BME280;58315;53.336;55.932;2022-10-31T06:06:31;97961.66;;;10.51;64.31
70730;BME280;58315;53.336;55.932;2022-10-31T06:08:57;97954.75;;;10.50;64.56
70730;BME280;58315;53.336;55.932;2022-10-31T06:11:24;97960.78;;;10.59;64.37
70730;BME280;58315;53.336;55.932;2022-10-31T06:14:10;97962.94;;;10.55;64.83
70730;BME280;58315;53.336;55.932;2022-10-31T06:16:51;97953.03;;;10.57;64.73
70730;BME280;58315;53.336;55.932;2022-10-31T06:19:56;97952.84;;;10.59;64.79
70730;BME280;58315;53.336;55.932;2022-10-31T06:22:25;97951.59;;;10.70;64.33
70730;BME280;58315;53.336;55.932;2022-10-31T06:24:52;97959.44;;;10.78;64.49
70730;BME280;58315;53.336;55.932;2022-10-31T06:27:28;97960.69;;;10.67;64.34
70730;BME280;58315;53.336;55.932;2022-10-31T06:29:56;97955.53;;;10.74;64.40
70730;BME280;58315;53.336;55.932;2022-10-31T06:32:29;97950.72;;;10.77;64.33
70730;BME280;58315;53.336;55.932;2022-10-31T06:34:55;97949.91;;;10.77;64.65
70730;BME280;58315;53.336;55.932;2022-10-31T06:37:22;97950.34;;;10.80;64.29
70730;BME280;58315;53.336;55.932;2022-10-31T06:39:54;97954.13;;;10.86;64.88
70730;BME280;58315;53.336;55.932;2022-10-31T06:42:21;97960.38;;;10.85;64.93
70730;BME280;58315;53.336;55.932;2022-10-31T06:44:47;97967.03;;;10.81;64.77
70730;BME280;58315;53.336;55.932;2022-10-31T06:47:32;97966.31;;;10.87;64.88
70730;BME280;58315;53.336;55.932;2022-10-31T06:50:10;97967.25;;;10.94;65.20
70730;BME280;58315;53.336;55.932;2022-10-31T06:52:36;97967.88;;;10.96;65.17
70730;BME280;58315;53.336;55.932;2022-10-31T06:55:04;97966.50;;;11.00;65.03
70730;BME280;58315;53.336;55.932;2022-10-31T06:57:56;97960.41;;;11.15;64.90
70730;BME280;58315;53.336;55.932;2022-10-31T07:00:23;97967.63;;;11.21;64.47
70730;BME280;58315;53.336;55.932;2022-10-31T07:05:24;97971.09;;;11.36;64.49
70730;BME280;58315;53.336;55.932;2022-10-31T07:07:59;97971.63;;;11.46;63.99
70730;BME280;58315;53.336;55.932;2022-10-31T07:10:27;97960.88;;;11.33;64.47
70730;BME280;58315;53.336;55.932;2022-10-31T07:13:01;97977.94;;;11.30;64.14
70730;BME280;58315;53.336;55.932;2022-10-31T07:15:32;97968.19;;;11.31;64.37
70730;BME280;58315;53.336;55.932;2022-10-31T07:18:00;97969.81;;;11.32;64.46
70730;BME280;58315;53.336;55.932;2022-10-31T07:20:27;97968.75;;;11.26;64.15
70730;BME280;58315;53.336;55.932;2022-10-31T07:22:54;97969.00;;;11.17;64.63
70730;BME280;58315;53.336;55.932;2022-10-31T07:25:23;97964.88;;;11.29;64.32
70730;BME280;58315;53.336;55.932;2022-10-31T07:28:08;97968.81;;;11.33;64.57
70730;BME280;58315;53.336;55.932;2022-10-31T07:30:35;97961.97;;;11.39;64.71
70730;BME280;58315;53.336;55.932;2022-10-31T07:33:21;97957.75;;;11.44;64.82
70730;BME280;58315;53.336;55.932;2022-10-31T07:36:14;97961.78;;;11.40;64.88
70730;BME280;58315;53.336;55.932;2022-10-31T07:38:43;97975.56;;;11.35;65.39
70730;BME280;58315;53.336;55.932;2022-10-31T07:41:09;97958.41;;;11.46;65.14
70730;BME280;58315;53.336;55.932;2022-10-31T07:43:40;97959.53;;;11.52;64.64
70730;BME280;58315;53.336;55.932;2022-10-31T07:46:17;97961.72;;;11.48;64.91
70730;BME280;58315;53.336;55.932;2022-10-31T07:49:01;97949.75;;;11.52;64.66
70730;BME280;58315;53.336;55.932;2022-10-31T07:51:46;97950.56;;;11.53;64.83
70730;BME280;58315;53.336;55.932;2022-10-31T07:54:45;97941.81;;;11.52;64.86
70730;BME280;58315;53.336;55.932;2022-10-31T07:57:12;97932.63;;;11.48;65.39
70730;BME280;58315;53.336;55.932;2022-10-31T07:59:38;97927.03;;;11.58;65.20
70730;BME280;58315;53.336;55.932;2022-10-31T08:02:07;97930.84;;;11.70;65.02
70730;BME280;58315;53.336;55.932;2022-10-31T08:05:09;97925.59;;;11.77;65.10
70730;BME280;58315;53.336;55.932;2022-10-31T08:07:54;97926.97;;;11.88;65.13
70730;BME280;58315;53.336;55.932;2022-10-31T08:10:22;97920.50;;;11.90;64.99
70730;BME280;58315;53.336;55.932;2022-10-31T08:12:55;97919.06;;;12.09;64.74
70730;BME280;58315;53.336;55.932;2022-10-31T08:15:21;97923.69;;;12.22;64.45
70730;BME280;58315;53.336;55.932;2022-10-31T08:17:47;97917.56;;;12.21;64.16
70730;BME280;58315;53.336;55.932;2022-10-31T08:20:13;97922.38;;;12.33;64.21
70730;BME280;58315;53.336;55.932;2022-10-31T08:23:14;97928.84;;;12.51;63.51
70730;BME280;58315;53.336;55.932;2022-10-31T08:25:42;97923.47;;;12.45;63.38
70730;BME280;58315;53.336;55.932;2022-10-31T08:28:10;97924.59;;;12.57;63.37
70730;BME280;58315;53.336;55.932;2022-10-31T08:30:39;97912.81;;;12.60;63.18
70730;BME280;58315;53.336;55.932;2022-10-31T08:33:40;97919.94;;;12.59;63.03
70730;BME280;58315;53.336;55.932;2022-10-31T08:36:20;97914.63;;;12.59;62.88
70730;BME280;58315;53.336;55.932;2022-10-31T08:39:06;97923.47;;;12.66;63.05
70730;BME280;58315;53.336;55.932;2022-10-31T08:41:33;97915.16;;;12.76;62.69
70730;BME280;58315;53.336;55.932;2022-10-31T08:44:00;97910.72;;;12.83;62.34
70730;BME280;58315;53.336;55.932;2022-10-31T08:46:25;97911.66;;;12.69;62.60
70730;BME280;58315;53.336;55.932;2022-10-31T08:48:52;97905.34;;;12.70;62.67
70730;BME280;58315;53.336;55.932;2022-10-31T08:51:19;97904.75;;;12.74;62.89
70730;BME280;58315;53.336;55.932;2022-10-31T08:53:48;97916.44;;;12.80;62.76
70730;BME280;58315;53.336;55.932;2022-10-31T08:56:23;97910.66;;;12.70;62.67
70730;BME280;58315;53.336;55.932;2022-10-31T08:58:49;97904.91;;;12.66;62.79
70730;BME280;58315;53.336;55.932;2022-10-31T09:01:21;97906.84;;;12.58;63.12
70730;BME280;58315;53.336;55.932;2022-10-31T09:03:47;97893.38;;;12.52;63.18
70730;BME280;58315;53.336;55.932;2022-10-31T09:06:13;97896.66;;;12.54;63.14
70730;BME280;58315;53.336;55.932;2022-10-31T09:08:39;97902.72;;;12.48;63.24
70730;BME280;58315;53.336;55.932;2022-10-31T09:11:05;97889.47;;;12.48;63.21
70730;BME280;58315;53.336;55.932;2022-10-31T09:13:52;97887.22;;;12.45;63.49
70730;BME280;58315;53.336;55.932;2022-10-31T09:16:57;97893.91;;;12.41;63.56
70730;BME280;58315;53.336;55.932;2022-10-31T09:19:30;97903.38;;;12.29;63.90
70730;BME280;58315;53.336;55.932;2022-10-31T09:21:56;97912.28;;;12.21;64.00
70730;BME280;58315;53.336;55.932;2022-10-31T09:24:22;97901.25;;;12.18;64.15
70730;BME280;58315;53.336;55.932;2022-10-31T09:26:48;97911.63;;;12.19;64.23
70730;BME280;58315;53.336;55.932;2022-10-31T09:29:18;97900.84;;;12.21;64.43
70730;BME280;58315;53.336;55.932;2022-10-31T09:31:48;97906.53;;;12.18;64.36
70730;BME280;58315;53.336;55.932;2022-10-31T09:34:36;97905.16;;;12.22;64.46
70730;BME280;58315;53.336;55.932;2022-10-31T09:37:05;97900.91;;;12.27;64.18
70730;BME280;58315;53.336;55.932;2022-10-31T09:39:33;97907.03;;;12.28;64.18
70730;BME280;58315;53.336;55.932;2022-10-31T09:45:16;97920.03;;;12.23;64.33
70730;BME280;58315;53.336;55.932;2022-10-31T09:50:46;97915.69;;;12.15;64.69
70730;BME280;58315;53.336;55.932;2022-10-31T09:53:37;97912.44;;;12.20;64.61
70730;BME280;58315;53.336;55.932;2022-10-31T09:56:12;97920.22;;;12.21;64.53
70730;BME280;58315;53.336;55.932;2022-10-31T09:58:43;97893.97;;;12.26;64.43
70730;BME280;58315;53.336;55.932;2022-10-31T10:01:24;97886.34;;;12.38;63.87
70730;BME280;58315;53.336;55.932;2022-10-31T10:03:54;97879.78;;;12.34;63.51
70730;BME280;58315;53.336;55.932;2022-10-31T10:06:46;97873.63;;;12.27;62.48
70730;BME280;58315;53.336;55.932;2022-10-31T10:09:46;97886.56;;;12.15;62.47
70730;BME280;58315;53.336;55.932;2022-10-31T10:18:16;97895.81;;;12.04;61.98
70730;BME280;58315;53.336;55.932;2022-10-31T10:20:59;97895.06;;;12.11;62.10
70730;BME280;58315;53.336;55.932;2022-10-31T10:26:19;97887.00;;;12.19;62.27
70730;BME280;58315;53.336;55.932;2022-10-31T10:28:54;97883.69;;;12.17;61.70
70730;BME280;58315;53.336;55.932;2022-10-31T10:31:26;97888.81;;;12.18;61.50
70730;BME280;58315;53.336;55.932;2022-10-31T10:36:32;97894.25;;;11.89;61.75
70730;BME280;58315;53.336;55.932;2022-10-31T10:39:05;97897.25;;;11.86;61.76
70730;BME280;58315;53.336;55.932;2022-10-31T10:41:41;97890.50;;;11.68;62.17
70730;BME280;58315;53.336;55.932;2022-10-31T10:44:09;97893.16;;;11.68;62.18
70730;BME280;58315;53.336;55.932;2022-10-31T10:46:48;97899.09;;;11.85;62.34
70730;BME280;58315;53.336;55.932;2022-10-31T10:49:45;97889.84;;;11.81;62.29
70730;BME280;58315;53.336;55.932;2022-10-31T10:52:33;97889.66;;;11.82;62.62
70730;BME280;58315;53.336;55.932;2022-10-31T10:55:14;97891.97;;;11.71;62.15
70730;BME280;58315;53.336;55.932;2022-10-31T10:58:03;97887.59;;;11.78;62.25
70730;BME280;58315;53.336;55.932;2022-10-31T11:00:32;97896.63;;;11.69;62.09
70730;BME280;58315;53.336;55.932;2022-10-31T11:03:00;97890.88;;;11.65;62.31
70730;BME280;58315;53.336;55.932;2022-10-31T11:05:36;97904.72;;;11.82;62.15
70730;BME280;58315;53.336;55.932;2022-10-31T11:08:05;97896.63;;;11.69;62.11
70730;BME280;58315;53.336;55.932;2022-10-31T11:10:32;97891.22;;;11.77;61.99
70730;BME280;58315;53.336;55.932;2022-10-31T11:18:25;97885.38;;;11.81;61.10
70730;BME280;58315;53.336;55.932;2022-10-31T11:20:57;97885.47;;;11.88;61.06
70730;BME280;58315;53.336;55.932;2022-10-31T11:23:24;97893.97;;;11.83;60.19
70730;BME280;58315;53.336;55.932;2022-10-31T11:26:03;97903.47;;;11.78;60.71
70730;BME280;58315;53.336;55.932;2022-10-31T11:28:31;97897.88;;;11.73;60.67
70730;BME280;58315;53.336;55.932;2022-10-31T11:31:13;97895.16;;;11.81;60.69
70730;BME280;58315;53.336;55.932;2022-10-31T11:36:23;97901.78;;;11.92;60.83
70730;BME280;58315;53.336;55.932;2022-10-31T11:38:51;97893.25;;;11.75;60.61
70730;BME280;58315;53.336;55.932;2022-10-31T11:41:19;97887.38;;;11.79;60.77
70730;BME280;58315;53.336;55.932;2022-10-31T11:43:58;97886.84;;;11.84;60.36
70730;BME280;58315;53.336;55.932;2022-10-31T11:46:37;97888.03;;;11.81;59.70
70730;BME280;58315;53.336;55.932;2022-10-31T11:49:05;97895.25;;;11.73;60.09
70730;BME280;58315;53.336;55.932;2022-10-31T11:51:37;97881.63;;;11.76;60.01
70730;BME280;58315;53.336;55.932;2022-10-31T11:54:04;97882.81;;;11.73;59.85
70730;BME280;58315;53.336;55.932;2022-10-31T11:56:40;97886.56;;;11.79;59.81
70730;BME280;58315;53.336;55.932;2022-10-31T11:59:21;97877.72;;;11.72;59.99
70730;BME280;58315;53.336;55.932;2022-10-31T12:01:50;97883.41;;;11.69;59.84
70730;BME280;58315;53.336;55.932;2022-10-31T12:04:17;97897.53;;;11.76;59.65
70730;BME280;58315;53.336;55.932;2022-10-31T12:06:44;97884.66;;;11.73;59.75
70730;BME280;58315;53.336;55.932;2022-10-31T12:09:33;97891.34;;;11.69;59.73
70730;BME280;58315;53.336;55.932;2022-10-31T12:12:13;97885.44;;;11.67;59.57
70730;BME280;58315;53.336;55.932;2022-10-31T12:23:05;97887.06;;;11.68;60.33
70730;BME280;58315;53.336;55.932;2022-10-31T12:25:41;97886.41;;;11.66;60.59
70730;BME280;58315;53.336;55.932;2022-10-31T12:31:16;97887.81;;;11.83;60.60
70730;BME280;58315;53.336;55.932;2022-10-31T12:34:19;97890.94;;;11.87;60.54
70730;BME280;58315;53.336;55.932;2022-10-31T12:39:58;97906.19;;;11.85;61.04
70730;BME280;58315;53.336;55.932;2022-10-31T12:50:48;97957.59;;;11.31;62.22
70730;BME280;58315;53.336;55.932;2022-10-31T12:53:53;97962.44;;;11.42;61.87
70730;BME280;58315;53.336;55.932;2022-10-31T12:59:35;97969.72;;;11.40;61.59
70730;BME280;58315;53.336;55.932;2022-10-31T13:02:02;97962.34;;;11.35;61.12
70730;BME280;58315;53.336;55.932;2022-10-31T13:05:01;97961.31;;;11.37;60.63
70730;BME280;58315;53.336;55.932;2022-10-31T13:07:36;97954.06;;;11.24;60.31
70730;BME280;58315;53.336;55.932;2022-10-31T13:12:51;97966.00;;;11.20;60.50
70730;BME280;58315;53.336;55.932;2022-10-31T13:15:25;97963.00;;;11.23;60.27
70730;BME280;58315;53.336;55.932;2022-10-31T13:17:55;97963.50;;;11.03;60.18
70730;BME280;58315;53.336;55.932;2022-10-31T13:20:41;97965.56;;;10.93;60.66
70730;BME280;58315;53.336;55.932;2022-10-31T13:23:14;97974.34;;;10.94;60.54
70730;BME280;58315;53.336;55.932;2022-10-31T13:25:47;97986.00;;;10.99;60.46
70730;BME280;58315;53.336;55.932;2022-10-31T13:31:20;97980.25;;;10.96;61.30
70730;BME280;58315;53.336;55.932;2022-10-31T13:34:00;97981.03;;;11.04;61.16
70730;BME280;58315;53.336;55.932;2022-10-31T13:36:42;97986.03;;;11.14;61.16
70730;BME280;58315;53.336;55.932;2022-10-31T13:42:19;97997.88;;;11.03;61.09
70730;BME280;58315;53.336;55.932;2022-10-31T13:44:46;98000.47;;;10.89;61.23
70730;BME280;58315;53.336;55.932;2022-10-31T13:47:26;97985.56;;;10.96;61.36
70730;BME280;58315;53.336;55.932;2022-10-31T13:52:43;97999.53;;;11.04;61.10
70730;BME280;58315;53.336;55.932;2022-10-31T13:55:40;98003.03;;;10.97;61.30
70730;BME280;58315;53.336;55.932;2022-10-31T13:58:28;98007.50;;;10.96;61.45
70730;BME280;58315;53.336;55.932;2022-10-31T14:03:36;98020.88;;;10.80;61.91
70730;BME280;58315;53.336;55.932;2022-10-31T14:06:03;98016.88;;;10.84;61.96
70730;BME280;58315;53.336;55.932;2022-10-31T14:08:33;98018.34;;;10.86;61.92
70730;BME280;58315;53.336;55.932;2022-10-31T14:11:00;98025.16;;;10.81;61.92
70730;BME280;58315;53.336;55.932;2022-10-31T14:13:41;98023.09;;;10.91;61.54
70730;BME280;58315;53.336;55.932;2022-10-31T14:16:21;98035.94;;;10.94;61.64
70730;BME280;58315;53.336;55.932;2022-10-31T14:18:56;98033.00;;;10.89;61.85
70730;BME280;58315;53.336;55.932;2022-10-31T14:21:26;98029.63;;;10.80;61.59
70730;BME280;58315;53.336;55.932;2022-10-31T14:23:54;98030.16;;;10.76;61.56
70730;BME280;58315;53.336;55.932;2022-10-31T14:26:31;98038.94;;;10.91;61.15
70730;BME280;58315;53.336;55.932;2022-10-31T14:29:20;98041.34;;;10.78;61.28
70730;BME280;58315;53.336;55.932;2022-10-31T14:32:04;98039.38;;;10.80;61.06
70730;BME280;58315;53.336;55.932;2022-10-31T14:34:39;98053.63;;;10.71;61.42
70730;BME280;58315;53.336;55.932;2022-10-31T14:37:48;98056.03;;;10.80;61.25
70730;BME280;58315;53.336;55.932;2022-10-31T14:43:12;98073.13;;;10.70;61.08
70730;BME280;58315;53.336;55.932;2022-10-31T14:51:14;98085.03;;;10.66;61.58
70730;BME280;58315;53.336;55.932;2022-10-31T14:56:24;98089.97;;;10.69;61.55
70730;BME280;58315;53.336;55.932;2022-10-31T14:58:55;98098.13;;;10.59;61.44
70730;BME280;58315;53.336;55.932;2022-10-31T15:01:27;98095.94;;;10.62;61.61
70730;BME280;58315;53.336;55.932;2022-10-31T15:04:16;98094.25;;;10.70;61.47
70730;BME280;58315;53.336;55.932;2022-10-31T15:06:48;98099.72;;;10.68;61.49
70730;BME280;58315;53.336;55.932;2022-10-31T15:11:48;98097.59;;;10.63;61.32
70730;BME280;58315;53.336;55.932;2022-10-31T15:14:29;98094.25;;;10.70;61.29